CheckWX is a tool to help pilots better visualize weather data.  It is not intended as a substitute for an official pre-flight weather briefing.

01:02:50 UTC

6B9 METAR
Skaneateles Aero Drome Airport
Skaneateles, New York, USA
Current

28 mins ago

K6B9 200035Z AUTO 00000KT 10SM BKN041 BKN050 BKN060 21/19 A3005 RMK AO2
Observed
Aug-20 @ 00:35 UTC
Visibility
10 SM
Flight Rules
VFR
Cloud Levels
  • Broken at 4,100' AGL
  • Broken at 5,000' AGL
  • Broken at 6,000' AGL
Temperature
21°C / 70°F
Dewpoint
19°C / 66°F
Humidity
88%
Altimeter
30.05" Hg
Pressure
1017.62 hPa
Previous

48 mins ago

K6B9 200015Z AUTO 00000KT 10SM SCT042 SCT050 SCT060 21/19 A3004 RMK AO2
Observed
Aug-20 @ 00:15 UTC
Visibility
10 SM
Flight Rules
VFR
Cloud Levels
  • Scattered at 4,200' AGL
  • Scattered at 5,000' AGL
  • Scattered at 6,000' AGL
Temperature
21°C / 70°F
Dewpoint
19°C / 66°F
Humidity
88%
Altimeter
30.04" Hg
Pressure
1017.32 hPa
Previous

1 hour ago

K6B9 192355Z AUTO 00000KT 10SM FEW043 22/19 A3003 RMK AO2
Observed
Aug-19 @ 23:55 UTC
Visibility
10 SM
Flight Rules
VFR
Cloud Levels
  • Few at 4,300' AGL
Temperature
22°C / 72°F
Dewpoint
19°C / 66°F
Humidity
83%
Altimeter
30.03" Hg
Pressure
1016.92 hPa